createdAt,value
2018-12-20T00:02:01.244Z,37.93
2018-12-20T00:04:28.903Z,37.67
2018-12-20T00:06:56.600Z,35.10
2018-12-20T00:09:24.295Z,35.47
2018-12-20T00:11:51.836Z,32.63
2018-12-20T00:14:19.679Z,35.77
2018-12-20T00:16:49.967Z,38.30
2018-12-20T00:19:17.443Z,40.07
2018-12-20T00:21:45.011Z,34.97
2018-12-20T00:24:12.629Z,35.23
2018-12-20T00:26:40.455Z,37.27
2018-12-20T00:29:08.043Z,36.23
2018-12-20T00:31:35.614Z,31.00
2018-12-20T00:34:03.196Z,39.87
2018-12-20T00:36:30.937Z,37.00
2018-12-20T00:38:58.461Z,40.67
2018-12-20T00:41:25.971Z,33.10
2018-12-20T00:43:53.553Z,40.03
2018-12-20T00:46:21.228Z,34.67
2018-12-20T00:48:48.815Z,38.53
2018-12-20T00:51:16.421Z,36.73
2018-12-20T00:53:44.356Z,39.20
2018-12-20T00:56:13.236Z,38.73
2018-12-20T00:58:40.854Z,34.30
2018-12-20T01:01:08.559Z,36.70
2018-12-20T01:03:36.338Z,35.57
2018-12-20T01:06:04.139Z,35.77
2018-12-20T01:08:31.885Z,33.23
2018-12-20T01:11:00.456Z,35.23
2018-12-20T01:13:28.022Z,35.07
2018-12-20T01:15:55.508Z,31.90
2018-12-20T01:18:23.115Z,32.53
2018-12-20T01:20:50.761Z,31.93
2018-12-20T01:23:18.317Z,31.63
2018-12-20T01:25:45.935Z,30.73
2018-12-20T01:28:13.771Z,26.87
2018-12-20T01:30:41.394Z,29.20
2018-12-20T01:33:09.114Z,29.37
2018-12-20T01:35:36.644Z,29.73
2018-12-20T01:38:04.171Z,29.80
2018-12-20T01:40:31.714Z,38.27
2018-12-20T01:42:59.367Z,31.90
2018-12-20T01:45:27.085Z,32.93
2018-12-20T01:47:54.895Z,37.60
2018-12-20T01:50:22.441Z,29.53
2018-12-20T01:52:49.986Z,30.87
2018-12-20T01:55:17.738Z,32.57
2018-12-20T01:57:45.373Z,32.83
2018-12-20T02:00:13.375Z,30.57
2018-12-20T02:02:40.907Z,33.07
2018-12-20T02:05:08.775Z,34.13
2018-12-20T02:07:36.464Z,30.77
2018-12-20T02:10:04.905Z,28.37
2018-12-20T02:12:32.438Z,31.30
2018-12-20T02:15:01.732Z,30.03
2018-12-20T02:17:29.671Z,31.27
2018-12-20T02:19:57.355Z,29.27
2018-12-20T02:22:24.948Z,30.33
2018-12-20T02:24:52.574Z,27.07
2018-12-20T02:27:20.324Z,29.60
2018-12-20T02:29:48.013Z,26.90
2018-12-20T02:32:15.974Z,28.13
2018-12-20T02:34:43.464Z,26.70
2018-12-20T02:37:10.991Z,26.07
2018-12-20T02:39:38.723Z,34.40
2018-12-20T02:42:06.462Z,27.30
2018-12-20T02:44:34.010Z,26.47
2018-12-20T02:47:01.550Z,27.00
2018-12-20T02:49:29.041Z,27.00
2018-12-20T02:51:56.682Z,29.80
2018-12-20T02:54:25.299Z,28.13
2018-12-20T02:56:53.213Z,28.13
2018-12-20T02:59:20.792Z,27.47
2018-12-20T03:01:48.436Z,31.10
2018-12-20T03:04:15.979Z,29.57
2018-12-20T03:06:43.547Z,29.20
2018-12-20T03:09:11.254Z,31.53
2018-12-20T03:11:38.860Z,32.23
2018-12-20T03:14:06.430Z,29.70
2018-12-20T03:16:34.304Z,29.27
2018-12-20T03:19:02.152Z,26.70
2018-12-20T03:21:29.645Z,25.97
2018-12-20T03:23:57.178Z,28.53
2018-12-20T03:26:24.794Z,30.80
2018-12-20T03:28:52.297Z,25.17
2018-12-20T03:31:19.891Z,34.83
2018-12-20T03:33:47.470Z,29.70
2018-12-20T03:36:15.146Z,29.17
2018-12-20T03:38:42.832Z,31.87
2018-12-20T03:41:10.754Z,33.50
2018-12-20T03:43:38.636Z,31.30
2018-12-20T03:46:06.737Z,30.50
2018-12-20T03:48:34.562Z,32.57
2018-12-20T03:51:02.540Z,32.23
2018-12-20T03:53:30.194Z,34.50
2018-12-20T03:55:57.901Z,33.83
2018-12-20T03:58:25.506Z,34.07
2018-12-20T04:00:53.319Z,30.03
2018-12-20T04:03:21.231Z,32.67
2018-12-20T04:05:48.943Z,33.00
2018-12-20T04:08:16.712Z,32.40
2018-12-20T04:10:44.444Z,32.43
2018-12-20T04:13:12.101Z,30.40
2018-12-20T04:15:39.905Z,32.37
2018-12-20T04:18:07.698Z,32.80
2018-12-20T04:20:36.021Z,32.20
2018-12-20T04:23:03.631Z,32.03
2018-12-20T04:25:31.229Z,32.70
2018-12-20T04:27:59.138Z,32.87
2018-12-20T04:30:26.716Z,34.83
2018-12-20T04:32:54.985Z,35.57
2018-12-20T04:35:22.644Z,32.20
2018-12-20T04:37:50.177Z,33.20
2018-12-20T04:40:17.897Z,32.67
2018-12-20T04:42:45.938Z,32.83
2018-12-20T04:45:13.723Z,33.77
2018-12-20T04:47:41.261Z,39.20
2018-12-20T04:50:09.158Z,33.33
2018-12-20T04:52:36.771Z,30.83
2018-12-20T04:55:04.411Z,30.13
2018-12-20T04:57:32.623Z,32.50
2018-12-20T05:00:00.139Z,31.47
2018-12-20T05:02:27.863Z,30.37
2018-12-20T05:04:55.952Z,34.77
2018-12-20T05:07:23.838Z,30.87
2018-12-20T05:09:51.752Z,31.97
2018-12-20T05:12:19.409Z,32.87
2018-12-20T05:14:47.106Z,34.83
2018-12-20T05:17:14.605Z,30.57
2018-12-20T05:19:42.185Z,32.67
2018-12-20T05:22:09.875Z,32.87
2018-12-20T05:24:38.323Z,31.73
2018-12-20T05:27:06.344Z,30.97
2018-12-20T05:29:34.059Z,30.53
2018-12-20T05:32:01.984Z,28.63
2018-12-20T05:34:29.778Z,30.50
2018-12-20T05:36:57.452Z,28.90
2018-12-20T05:39:25.452Z,41.03
2018-12-20T05:41:53.204Z,31.13
2018-12-20T05:44:20.890Z,34.57
2018-12-20T05:46:48.582Z,33.97
2018-12-20T05:49:16.769Z,29.70
2018-12-20T05:51:44.568Z,33.40
2018-12-20T05:54:12.296Z,32.37
2018-12-20T05:56:39.893Z,37.07
2018-12-20T05:59:07.797Z,31.00
2018-12-20T06:01:35.368Z,34.93
2018-12-20T06:04:02.890Z,32.00
2018-12-20T06:06:30.458Z,34.97
2018-12-20T06:08:58.142Z,31.27
2018-12-20T06:11:25.888Z,31.93
2018-12-20T06:13:55.206Z,32.83
2018-12-20T06:16:23.208Z,27.20
2018-12-20T06:18:50.860Z,29.20
2018-12-20T06:21:18.675Z,29.93
2018-12-20T06:23:46.252Z,31.97
2018-12-20T06:26:13.841Z,26.93
2018-12-20T06:28:41.844Z,28.03
2018-12-20T06:31:09.470Z,31.60
2018-12-20T06:33:37.028Z,29.93
2018-12-20T06:36:04.622Z,30.57
2018-12-20T06:38:32.148Z,28.87
2018-12-20T06:40:59.647Z,24.57
2018-12-20T06:43:27.130Z,24.10
2018-12-20T06:45:54.653Z,23.27
2018-12-20T06:48:22.468Z,25.83
2018-12-20T06:50:49.946Z,24.10
2018-12-20T06:53:17.436Z,19.80
2018-12-20T06:55:44.963Z,16.60
2018-12-20T06:58:12.552Z,21.23
2018-12-20T07:00:40.829Z,20.53
2018-12-20T07:03:08.349Z,18.43
2018-12-20T07:05:35.821Z,17.07
2018-12-20T07:08:03.334Z,18.00
2018-12-20T07:10:30.895Z,25.47
2018-12-20T07:12:58.442Z,24.40
2018-12-20T07:15:25.932Z,22.17
2018-12-20T07:17:53.637Z,30.73
2018-12-20T07:20:21.133Z,26.40
2018-12-20T07:22:48.622Z,26.43
2018-12-20T07:25:16.101Z,27.63
2018-12-20T07:27:43.951Z,23.57
2018-12-20T07:30:12.463Z,27.23
2018-12-20T07:32:40.112Z,24.57
2018-12-20T07:35:07.595Z,29.23
2018-12-20T07:37:35.088Z,26.30
2018-12-20T07:40:02.986Z,30.40
2018-12-20T07:42:30.483Z,30.93
2018-12-20T07:44:57.948Z,27.63
2018-12-20T07:47:26.331Z,24.30
2018-12-20T07:49:53.812Z,25.43
2018-12-20T07:52:21.372Z,26.67
2018-12-20T07:54:48.880Z,24.87
2018-12-20T07:57:16.349Z,29.93
2018-12-20T07:59:43.847Z,23.67
2018-12-20T08:02:11.543Z,25.13
2018-12-20T08:04:39.703Z,26.83
2018-12-20T08:07:07.293Z,26.53
2018-12-20T08:09:34.847Z,27.93
2018-12-20T08:12:02.379Z,24.23
2018-12-20T08:14:29.863Z,23.63
2018-12-20T08:16:57.327Z,32.67
2018-12-20T08:19:24.864Z,25.67
2018-12-20T08:21:52.349Z,21.40
2018-12-20T08:24:19.847Z,21.97
2018-12-20T08:26:47.364Z,20.33
2018-12-20T08:29:14.898Z,21.03
2018-12-20T08:31:42.425Z,19.73
2018-12-20T08:34:10.008Z,18.43
2018-12-20T08:36:37.476Z,14.20
2018-12-20T08:39:06.663Z,19.97
2018-12-20T08:41:34.179Z,17.07
2018-12-20T08:44:01.731Z,21.13
2018-12-20T08:46:29.199Z,14.33
2018-12-20T08:48:56.679Z,15.23
2018-12-20T08:51:24.167Z,16.20
2018-12-20T08:53:51.660Z,14.63
2018-12-20T08:56:19.271Z,18.67
2018-12-20T08:58:46.750Z,15.57
2018-12-20T09:01:14.238Z,16.53
2018-12-20T09:03:41.715Z,14.67
2018-12-20T09:06:09.216Z,13.10
2018-12-20T09:08:36.680Z,10.70
2018-12-20T09:11:04.167Z,12.70
2018-12-20T09:13:31.626Z,10.50
2018-12-20T09:15:59.131Z,10.53
2018-12-20T09:18:26.626Z,10.53
2018-12-20T09:20:54.137Z,18.57
2018-12-20T09:23:21.753Z,8.43
2018-12-20T09:25:50.001Z,11.40
2018-12-20T09:28:17.923Z,9.10
2018-12-20T09:30:45.502Z,9.63
2018-12-20T09:33:12.946Z,8.57
2018-12-20T09:35:40.889Z,10.23
2018-12-20T09:38:08.394Z,10.40
2018-12-20T09:40:35.913Z,12.27
2018-12-20T09:43:03.522Z,8.90
2018-12-20T09:45:31.012Z,16.50
2018-12-20T09:48:04.432Z,11.90
2018-12-20T09:50:32.007Z,6.33
2018-12-20T09:52:59.493Z,4.33
2018-12-20T09:55:26.961Z,8.03
2018-12-20T09:57:54.479Z,8.30
2018-12-20T10:00:22.055Z,7.23
2018-12-20T10:02:49.523Z,4.37
2018-12-20T10:05:16.969Z,6.70
2018-12-20T10:07:44.449Z,6.87
2018-12-20T10:10:12.161Z,8.73
2018-12-20T10:12:39.935Z,5.27
2018-12-20T10:15:07.451Z,6.37
2018-12-20T10:17:34.914Z,6.87
2018-12-20T10:20:02.418Z,6.27
2018-12-20T10:22:30.615Z,6.97
2018-12-20T10:24:58.113Z,4.60
2018-12-20T10:27:31.419Z,8.00
2018-12-20T10:29:55.119Z,3.80
2018-12-20T10:32:22.692Z,7.33
2018-12-20T10:34:50.151Z,4.17
2018-12-20T10:37:17.609Z,3.33
2018-12-20T10:39:45.158Z,1.93
2018-12-20T10:42:12.724Z,3.47
2018-12-20T10:44:40.177Z,2.87
2018-12-20T10:47:13.466Z,2.27
2018-12-20T10:49:40.914Z,3.67
2018-12-20T10:52:08.383Z,6.00
2018-12-20T10:54:35.837Z,4.43
2018-12-20T10:57:03.923Z,3.87
2018-12-20T10:59:31.981Z,2.23
2018-12-20T11:02:05.127Z,4.53
2018-12-20T11:04:34.556Z,5.13
2018-12-20T11:07:07.778Z,9.13
2018-12-20T11:09:41.209Z,4.10
2018-12-20T11:12:08.954Z,3.37
2018-12-20T11:14:36.455Z,3.07
2018-12-20T11:17:04.013Z,4.70
2018-12-20T11:19:31.474Z,4.03
2018-12-20T11:21:58.968Z,2.73
2018-12-20T11:24:26.525Z,1.87
2018-12-20T11:26:54.186Z,2.43
2018-12-20T11:29:21.634Z,3.43
2018-12-20T11:31:49.096Z,1.53
2018-12-20T11:34:16.654Z,3.87
2018-12-20T11:36:44.929Z,2.87
2018-12-20T11:39:12.494Z,4.33
2018-12-20T11:41:40.486Z,2.23
2018-12-20T11:44:08.046Z,1.50
2018-12-20T11:46:35.687Z,1.83
2018-12-20T11:49:03.247Z,2.97
2018-12-20T11:51:31.012Z,1.40
2018-12-20T11:53:58.662Z,2.90
2018-12-20T11:56:26.114Z,2.17
2018-12-20T11:58:53.689Z,2.90
2018-12-20T12:01:21.227Z,1.40
2018-12-20T12:03:57.179Z,1.67
2018-12-20T12:06:18.166Z,1.87
2018-12-20T12:08:45.672Z,3.43
2018-12-20T12:11:13.125Z,1.50
2018-12-20T12:13:40.677Z,1.80
2018-12-20T12:16:08.231Z,1.80
2018-12-20T12:18:35.761Z,1.77
2018-12-20T12:21:03.521Z,0.90
2018-12-20T12:23:30.995Z,1.30
2018-12-20T12:25:58.467Z,1.20
2018-12-20T12:28:25.934Z,2.53
2018-12-20T12:30:53.400Z,2.80
2018-12-20T12:33:20.933Z,1.93
2018-12-20T12:35:48.481Z,1.77
2018-12-20T12:38:15.962Z,1.30
2018-12-20T12:40:43.733Z,3.07
2018-12-20T12:43:11.196Z,1.67
2018-12-20T12:45:38.668Z,8.23
2018-12-20T12:48:06.169Z,1.90
2018-12-20T12:50:33.658Z,1.20
2018-12-20T12:53:01.097Z,2.17
2018-12-20T12:55:29.159Z,2.77
2018-12-20T12:58:04.447Z,2.10
2018-12-20T13:00:26.193Z,2.07
2018-12-20T13:02:53.678Z,1.70
2018-12-20T13:05:21.444Z,2.40
2018-12-20T13:07:48.911Z,1.67
2018-12-20T13:10:16.373Z,2.00
2018-12-20T13:12:43.831Z,1.53
2018-12-20T13:15:11.374Z,2.70
2018-12-20T13:17:38.821Z,2.33
2018-12-20T13:20:08.630Z,1.63
2018-12-20T13:22:36.079Z,1.53
2018-12-20T13:25:03.761Z,1.83
2018-12-20T13:27:31.286Z,2.10
2018-12-20T13:29:58.952Z,2.97
2018-12-20T13:32:26.403Z,2.20
2018-12-20T13:34:53.923Z,2.63
2018-12-20T13:37:21.382Z,3.80
2018-12-20T13:39:49.108Z,2.30
2018-12-20T13:42:16.674Z,1.83
2018-12-20T13:44:44.164Z,3.70
2018-12-20T13:47:11.724Z,3.67
2018-12-20T13:49:39.171Z,3.00
2018-12-20T13:52:06.641Z,4.73
2018-12-20T13:54:34.086Z,3.60
2018-12-20T13:57:01.654Z,4.53
2018-12-20T13:59:29.211Z,4.30
2018-12-20T14:01:56.738Z,8.40
2018-12-20T14:04:24.209Z,19.57
2018-12-20T14:06:51.671Z,15.93
2018-12-20T14:09:19.923Z,3.10
2018-12-20T14:11:47.724Z,2.00
2018-12-20T14:14:15.589Z,1.87
2018-12-20T14:16:43.423Z,3.60
2018-12-20T14:19:10.884Z,3.00
2018-12-20T14:21:38.351Z,2.40
2018-12-20T14:24:05.879Z,3.00
2018-12-20T14:26:33.486Z,2.50
2018-12-20T14:29:01.626Z,3.30
2018-12-20T14:31:29.151Z,2.07
2018-12-20T14:33:56.679Z,2.63
2018-12-20T14:36:24.861Z,3.23
2018-12-20T14:38:52.830Z,4.60
2018-12-20T14:41:20.306Z,1.83
2018-12-20T14:43:48.248Z,2.50
2018-12-20T14:46:15.910Z,4.63
2018-12-20T14:48:43.480Z,4.03
2018-12-20T14:51:10.958Z,3.40
2018-12-20T14:53:38.740Z,3.37
2018-12-20T14:56:06.205Z,3.20
2018-12-20T14:58:33.668Z,2.63
2018-12-20T15:01:01.122Z,3.47
2018-12-20T15:03:28.695Z,2.20
2018-12-20T15:05:56.280Z,2.10
2018-12-20T15:08:23.752Z,3.63
2018-12-20T15:10:51.284Z,2.30
2018-12-20T15:13:18.853Z,1.60
2018-12-20T15:15:47.325Z,12.60
2018-12-20T15:18:14.847Z,30.17
2018-12-20T15:20:42.348Z,3.87
2018-12-20T15:23:09.818Z,4.50
2018-12-20T15:25:37.281Z,4.03
2018-12-20T15:28:04.746Z,5.37
2018-12-20T15:30:32.193Z,5.17
2018-12-20T15:33:01.104Z,3.30
2018-12-20T15:35:32.185Z,2.33
2018-12-20T15:38:01.210Z,2.30
2018-12-20T15:40:29.510Z,4.43
2018-12-20T15:42:57.039Z,5.07
2018-12-20T15:45:24.505Z,3.60
2018-12-20T15:47:51.988Z,2.03
2018-12-20T15:50:19.982Z,3.73
2018-12-20T15:52:47.582Z,4.60
2018-12-20T15:55:15.257Z,4.07
2018-12-20T15:57:42.873Z,2.73
2018-12-20T16:00:10.329Z,6.60
2018-12-20T16:02:37.820Z,3.00
2018-12-20T16:05:05.585Z,3.43
2018-12-20T16:07:33.060Z,2.70
2018-12-20T16:10:00.515Z,3.87
2018-12-20T16:12:28.254Z,2.60
2018-12-20T16:14:55.790Z,2.63
2018-12-20T16:17:23.242Z,2.37
2018-12-20T16:19:52.283Z,7.10
2018-12-20T16:22:19.804Z,2.47
2018-12-20T16:24:47.389Z,2.97
2018-12-20T16:27:14.915Z,3.60
2018-12-20T16:29:42.386Z,3.13
2018-12-20T16:32:09.847Z,3.97
2018-12-20T16:34:37.355Z,5.17
2018-12-20T16:37:04.879Z,2.70
2018-12-20T16:39:32.346Z,3.33
2018-12-20T16:41:59.811Z,2.27
2018-12-20T16:44:30.624Z,4.63
2018-12-20T16:46:58.586Z,3.27
2018-12-20T16:49:26.083Z,10.27
2018-12-20T16:51:53.614Z,7.17
2018-12-20T16:54:21.173Z,7.23
2018-12-20T16:56:49.396Z,6.50
2018-12-20T16:59:16.876Z,5.40
2018-12-20T17:01:44.360Z,4.40
2018-12-20T17:04:11.842Z,4.37
2018-12-20T17:06:39.732Z,3.83
2018-12-20T17:09:07.830Z,3.47
2018-12-20T17:11:35.291Z,6.20
2018-12-20T17:14:02.849Z,7.43
2018-12-20T17:16:30.306Z,5.97
2018-12-20T17:18:57.794Z,4.73
2018-12-20T17:21:25.244Z,3.50
2018-12-20T17:23:52.804Z,5.03
2018-12-20T17:26:20.319Z,3.93
2018-12-20T17:28:47.798Z,3.63
2018-12-20T17:31:15.352Z,5.03
2018-12-20T17:33:42.806Z,9.50
2018-12-20T17:36:10.291Z,5.13
2018-12-20T17:38:37.854Z,6.70
2018-12-20T17:41:05.320Z,3.60
2018-12-20T17:43:32.869Z,6.50
2018-12-20T17:46:00.372Z,3.93
2018-12-20T17:48:29.441Z,5.23
2018-12-20T17:50:57.155Z,6.93
2018-12-20T17:53:24.603Z,6.23
2018-12-20T17:55:52.095Z,6.37
2018-12-20T17:58:19.548Z,5.30
2018-12-20T18:00:47.025Z,6.43
2018-12-20T18:03:15.290Z,3.53
2018-12-20T18:05:42.759Z,6.97
2018-12-20T18:08:10.418Z,3.83
2018-12-20T18:10:38.264Z,6.57
2018-12-20T18:13:05.716Z,6.03
2018-12-20T18:15:33.289Z,9.53
2018-12-20T18:18:00.848Z,5.47
2018-12-20T18:20:28.327Z,3.33
2018-12-20T18:22:55.900Z,7.27
2018-12-20T18:25:23.392Z,6.30
2018-12-20T18:27:50.885Z,6.57
2018-12-20T18:30:18.349Z,6.93
2018-12-20T18:32:45.989Z,7.37
2018-12-20T18:35:14.030Z,5.23
2018-12-20T18:37:41.508Z,5.00
2018-12-20T18:40:08.949Z,8.37
2018-12-20T18:42:36.547Z,3.90
2018-12-20T18:45:05.228Z,5.30
2018-12-20T18:47:32.790Z,4.23
2018-12-20T18:50:00.263Z,6.53
2018-12-20T18:52:27.885Z,10.23
2018-12-20T18:54:55.348Z,7.13
2018-12-20T18:57:22.871Z,7.43
2018-12-20T18:59:50.948Z,9.10
2018-12-20T19:02:18.449Z,7.57
2018-12-20T19:04:46.012Z,6.97
2018-12-20T19:07:13.474Z,6.53
2018-12-20T19:09:40.935Z,9.00
2018-12-20T19:12:08.403Z,4.67
2018-12-20T19:14:35.852Z,6.47
2018-12-20T19:17:03.422Z,4.83
2018-12-20T19:19:30.892Z,8.20
2018-12-20T19:21:59.107Z,5.97
2018-12-20T19:24:26.550Z,6.07
2018-12-20T19:26:54.024Z,8.53
2018-12-20T19:29:21.476Z,5.07
2018-12-20T19:31:48.961Z,5.00
2018-12-20T19:34:16.719Z,4.93
2018-12-20T19:36:44.203Z,7.27
2018-12-20T19:39:11.758Z,8.37
2018-12-20T19:41:39.239Z,5.17
2018-12-20T19:44:06.687Z,2.27
2018-12-20T19:46:34.186Z,6.13
2018-12-20T19:49:01.644Z,6.20
2018-12-20T19:51:29.155Z,5.40
2018-12-20T19:53:56.626Z,7.30
2018-12-20T19:56:24.447Z,5.47
2018-12-20T19:58:51.913Z,9.53
2018-12-20T20:01:19.810Z,4.70
2018-12-20T20:03:47.307Z,4.97
2018-12-20T20:06:15.181Z,4.77
2018-12-20T20:08:42.735Z,2.97
2018-12-20T20:11:10.197Z,4.70
2018-12-20T20:13:37.681Z,10.50
2018-12-20T20:16:05.171Z,3.40
2018-12-20T20:18:32.657Z,6.43
2018-12-20T20:21:00.125Z,5.30
2018-12-20T20:23:27.698Z,5.80
2018-12-20T20:25:55.151Z,5.20
2018-12-20T20:28:22.634Z,6.30
2018-12-20T20:30:50.180Z,4.40
2018-12-20T20:33:17.653Z,9.10
2018-12-20T20:35:45.192Z,6.73
2018-12-20T20:38:12.722Z,6.53
2018-12-20T20:40:40.292Z,4.43
2018-12-20T20:43:07.833Z,5.80
2018-12-20T20:45:35.407Z,7.63
2018-12-20T20:48:02.957Z,5.63
2018-12-20T20:50:30.408Z,7.73
2018-12-20T20:52:57.909Z,7.97
2018-12-20T20:55:25.359Z,5.07
2018-12-20T20:57:52.820Z,5.63
2018-12-20T21:00:20.320Z,7.43
2018-12-20T21:02:47.811Z,7.57
2018-12-20T21:05:15.275Z,6.47
2018-12-20T21:07:42.776Z,6.20
2018-12-20T21:10:10.851Z,8.37
2018-12-20T21:12:38.370Z,3.20
2018-12-20T21:15:07.846Z,5.53
2018-12-20T21:17:35.300Z,7.70
2018-12-20T21:20:02.779Z,9.67
2018-12-20T21:22:31.164Z,7.17
2018-12-20T21:24:58.655Z,3.90
2018-12-20T21:27:26.107Z,6.50
2018-12-20T21:29:53.588Z,6.83
2018-12-20T21:32:21.058Z,3.57
2018-12-20T21:34:48.544Z,5.63
2018-12-20T21:37:16.019Z,6.53
2018-12-20T21:39:43.503Z,5.70
2018-12-20T21:42:10.960Z,4.57
2018-12-20T21:44:38.422Z,5.87
2018-12-20T21:47:05.881Z,6.40
2018-12-20T21:49:33.355Z,6.83
2018-12-20T21:52:01.704Z,6.97
2018-12-20T21:54:29.375Z,5.97
2018-12-20T21:56:57.068Z,7.27
2018-12-20T21:59:25.385Z,9.07
2018-12-20T22:01:54.403Z,8.57
2018-12-20T22:04:22.062Z,6.90
2018-12-20T22:06:49.527Z,8.37
2018-12-20T22:09:17.066Z,7.40
2018-12-20T22:11:44.523Z,8.73
2018-12-20T22:14:11.994Z,7.93
2018-12-20T22:16:40.064Z,5.80
2018-12-20T22:19:07.593Z,7.00
2018-12-20T22:21:35.157Z,4.90
2018-12-20T22:24:02.702Z,7.33
2018-12-20T22:26:30.182Z,9.10
2018-12-20T22:28:57.667Z,4.50
2018-12-20T22:31:25.184Z,7.37
2018-12-20T22:33:52.655Z,5.63
2018-12-20T22:36:20.222Z,11.83
2018-12-20T22:38:48.392Z,8.30
2018-12-20T22:41:15.882Z,6.43
2018-12-20T22:43:43.326Z,3.93
2018-12-20T22:46:11.206Z,4.57
2018-12-20T22:48:38.867Z,7.23
2018-12-20T22:51:06.375Z,6.47
2018-12-20T22:53:33.825Z,4.90
2018-12-20T22:56:01.286Z,7.63
2018-12-20T22:58:28.768Z,3.77
2018-12-20T23:00:56.286Z,6.93
2018-12-20T23:03:24.041Z,6.17
2018-12-20T23:05:51.627Z,4.37
2018-12-20T23:08:19.177Z,5.17
2018-12-20T23:10:46.827Z,14.37
2018-12-20T23:13:14.283Z,7.07
2018-12-20T23:15:41.867Z,6.50
2018-12-20T23:18:09.574Z,5.20
2018-12-20T23:20:37.055Z,4.27
2018-12-20T23:23:04.507Z,6.60
2018-12-20T23:25:32.000Z,6.10
2018-12-20T23:28:00.172Z,4.07
2018-12-20T23:30:27.635Z,6.60
2018-12-20T23:32:55.089Z,5.90
2018-12-20T23:35:22.550Z,8.83
2018-12-20T23:37:50.024Z,5.30
2018-12-20T23:40:17.481Z,8.67
2018-12-20T23:42:44.960Z,4.93
2018-12-20T23:45:12.409Z,6.13
2018-12-20T23:47:39.890Z,7.03
2018-12-20T23:50:07.373Z,7.03
2018-12-20T23:52:34.843Z,7.27
2018-12-20T23:55:02.302Z,6.60
2018-12-20T23:57:29.769Z,7.67
2018-12-20T23:59:57.863Z,4.03
